createdAt,value
2018-02-22T00:01:18.910Z,7.66
2018-02-22T00:03:48.424Z,7.73
2018-02-22T00:06:17.514Z,7.50
2018-02-22T00:08:46.650Z,7.68
2018-02-22T00:11:15.809Z,7.62
2018-02-22T00:13:44.678Z,7.56
2018-02-22T00:16:13.898Z,7.52
2018-02-22T00:18:43.277Z,7.63
2018-02-22T00:21:13.063Z,7.70
2018-02-22T00:23:42.739Z,7.55
2018-02-22T00:26:11.853Z,7.46
2018-02-22T00:28:41.034Z,7.50
2018-02-22T00:31:10.241Z,7.49
2018-02-22T00:33:39.246Z,7.52
2018-02-22T00:36:08.923Z,7.71
2018-02-22T00:38:38.083Z,7.60
2018-02-22T00:41:07.285Z,7.45
2018-02-22T00:43:36.504Z,7.44
2018-02-22T00:46:05.482Z,7.56
2018-02-22T00:48:34.442Z,7.54
2018-02-22T00:51:03.477Z,7.52
2018-02-22T00:53:32.661Z,7.56
2018-02-22T00:56:01.672Z,7.46
2018-02-22T00:58:31.057Z,7.41
2018-02-22T01:01:00.210Z,7.32
2018-02-22T01:03:29.350Z,7.38
2018-02-22T01:05:58.514Z,7.47
2018-02-22T01:08:27.559Z,7.56
2018-02-22T01:10:56.925Z,7.55
2018-02-22T01:13:26.225Z,7.43
2018-02-22T01:15:55.318Z,7.46
2018-02-22T01:18:24.270Z,7.44
2018-02-22T01:20:53.779Z,7.45
2018-02-22T01:23:22.793Z,7.47
2018-02-22T01:25:52.044Z,7.37
2018-02-22T01:28:20.921Z,7.51
2018-02-22T01:30:50.372Z,7.43
2018-02-22T01:33:19.444Z,7.43
2018-02-22T01:35:48.626Z,7.39
2018-02-22T01:38:17.639Z,7.33
2018-02-22T01:40:47.152Z,7.40
2018-02-22T01:43:16.525Z,7.39
2018-02-22T01:45:45.789Z,7.31
2018-02-22T01:48:15.150Z,7.21
2018-02-22T01:50:51.229Z,7.45
2018-02-22T01:53:20.266Z,7.36
2018-02-22T01:55:49.207Z,7.41
2018-02-22T01:58:18.197Z,7.22
2018-02-22T02:00:47.545Z,7.35
2018-02-22T02:03:17.072Z,7.27
2018-02-22T02:05:46.234Z,7.37
2018-02-22T02:08:15.222Z,7.53
2018-02-22T02:10:44.477Z,7.44
2018-02-22T02:13:13.554Z,7.33
2018-02-22T02:15:42.683Z,7.26
2018-02-22T02:18:11.929Z,7.44
2018-02-22T02:20:41.076Z,7.42
2018-02-22T02:23:10.218Z,7.40
2018-02-22T02:25:39.554Z,7.26
2018-02-22T02:28:09.160Z,7.36
2018-02-22T02:30:38.217Z,7.31
2018-02-22T02:33:07.441Z,7.34
2018-02-22T02:35:36.542Z,7.29
2018-02-22T02:38:05.440Z,7.17
2018-02-22T02:40:34.722Z,7.29
2018-02-22T02:43:03.793Z,7.25
2018-02-22T02:45:33.263Z,7.24
2018-02-22T02:48:02.672Z,7.13
2018-02-22T02:50:31.943Z,7.38
2018-02-22T02:53:00.990Z,7.19
2018-02-22T02:55:30.194Z,7.06
2018-02-22T02:57:59.543Z,7.09
2018-02-22T03:00:28.674Z,7.08
2018-02-22T03:02:58.138Z,6.98
2018-02-22T03:05:27.247Z,7.05
2018-02-22T03:07:56.515Z,7.10
2018-02-22T03:10:25.990Z,7.01
2018-02-22T03:12:55.058Z,7.10
2018-02-22T03:15:24.365Z,6.99
2018-02-22T03:17:53.351Z,7.05
2018-02-22T03:20:22.403Z,6.97
2018-02-22T03:22:51.746Z,6.97
2018-02-22T03:25:21.258Z,7.05
2018-02-22T03:27:50.482Z,6.85
2018-02-22T03:30:19.886Z,6.92
2018-02-22T03:32:48.729Z,6.89
2018-02-22T03:35:17.747Z,6.91
2018-02-22T03:37:46.641Z,6.86
2018-02-22T03:40:15.537Z,6.83
2018-02-22T03:42:44.828Z,6.79
2018-02-22T03:45:13.862Z,6.84
2018-02-22T03:47:43.531Z,6.87
2018-02-22T03:50:12.562Z,6.89
2018-02-22T03:52:41.639Z,6.79
2018-02-22T03:55:10.758Z,6.77
2018-02-22T03:57:40.030Z,6.72
2018-02-22T04:00:09.301Z,6.66
2018-02-22T04:02:39.022Z,6.76
2018-02-22T04:05:08.320Z,6.73
2018-02-22T04:07:37.761Z,6.70
2018-02-22T04:10:07.033Z,6.72
2018-02-22T04:12:36.261Z,6.70
2018-02-22T04:15:05.631Z,6.72
2018-02-22T04:17:34.669Z,6.72
2018-02-22T04:20:03.858Z,6.73
2018-02-22T04:22:33.049Z,6.65
2018-02-22T04:25:02.787Z,6.73
2018-02-22T04:27:32.271Z,6.76
2018-02-22T04:30:01.686Z,6.69
2018-02-22T04:32:30.918Z,6.74
2018-02-22T04:35:00.169Z,6.72
2018-02-22T04:37:29.530Z,6.72
2018-02-22T04:39:58.806Z,6.66
2018-02-22T04:42:28.182Z,6.57
2018-02-22T04:44:57.201Z,6.50
2018-02-22T04:47:26.120Z,6.60
2018-02-22T04:49:55.390Z,6.58
2018-02-22T04:52:24.486Z,6.44
2018-02-22T04:54:53.993Z,6.49
2018-02-22T04:57:23.533Z,6.41
2018-02-22T04:59:52.416Z,6.21
2018-02-22T05:02:21.985Z,6.13
2018-02-22T05:04:51.233Z,6.12
2018-02-22T05:07:20.641Z,6.22
2018-02-22T05:09:50.125Z,6.02
2018-02-22T05:12:18.938Z,6.04
2018-02-22T05:14:48.738Z,6.03
2018-02-22T05:17:18.005Z,6.18
2018-02-22T05:19:47.091Z,6.18
2018-02-22T05:22:15.946Z,6.09
2018-02-22T05:24:45.438Z,6.01
2018-02-22T05:27:14.870Z,6.08
2018-02-22T05:29:43.850Z,5.95
2018-02-22T05:32:13.470Z,5.82
2018-02-22T05:34:42.380Z,5.94
2018-02-22T05:37:12.021Z,6.00
2018-02-22T05:39:41.365Z,6.11
2018-02-22T05:42:10.286Z,5.95
2018-02-22T05:44:39.514Z,5.92
2018-02-22T05:47:08.694Z,5.93
2018-02-22T05:49:37.830Z,6.12
2018-02-22T05:52:07.018Z,6.09
2018-02-22T05:54:36.111Z,6.00
2018-02-22T05:57:05.414Z,5.96
2018-02-22T05:59:34.577Z,6.12
2018-02-22T06:02:03.763Z,6.12
2018-02-22T06:04:33.086Z,5.92
2018-02-22T06:07:02.167Z,5.96
2018-02-22T06:09:31.441Z,6.20
2018-02-22T06:12:00.780Z,6.03
2018-02-22T06:14:30.049Z,6.02
2018-02-22T06:16:59.330Z,6.02
2018-02-22T06:19:28.857Z,5.96
2018-02-22T06:21:57.729Z,6.05
2018-02-22T06:24:26.974Z,6.17
2018-02-22T06:26:56.006Z,6.01
2018-02-22T06:29:24.906Z,6.24
2018-02-22T06:31:54.065Z,6.35
2018-02-22T06:34:23.380Z,6.21
2018-02-22T06:36:52.482Z,6.34
2018-02-22T06:39:21.884Z,6.25
2018-02-22T06:41:51.193Z,6.31
2018-02-22T06:44:20.315Z,6.24
2018-02-22T06:46:49.614Z,6.29
2018-02-22T06:49:18.904Z,6.20
2018-02-22T06:51:47.950Z,6.22
2018-02-22T06:54:16.971Z,6.33
2018-02-22T06:56:46.241Z,6.20
2018-02-22T06:59:15.386Z,6.27
2018-02-22T07:01:45.083Z,6.37
2018-02-22T07:04:14.262Z,6.48
2018-02-22T07:06:43.203Z,6.38
2018-02-22T07:09:12.362Z,6.43
2018-02-22T07:11:41.444Z,6.34
2018-02-22T07:14:10.810Z,6.05
2018-02-22T07:16:40.078Z,6.16
2018-02-22T07:19:09.190Z,6.06
2018-02-22T07:21:38.355Z,6.05
2018-02-22T07:24:07.578Z,6.09
2018-02-22T07:26:36.585Z,5.80
2018-02-22T07:29:05.922Z,5.88
2018-02-22T07:31:35.246Z,6.04
2018-02-22T07:34:04.414Z,5.93
2018-02-22T07:36:33.362Z,5.94
2018-02-22T07:39:02.421Z,5.76
2018-02-22T07:41:31.567Z,5.70
2018-02-22T07:44:00.941Z,5.82
2018-02-22T07:46:30.397Z,5.89
2018-02-22T07:48:59.685Z,5.79
2018-02-22T07:51:28.613Z,6.00
2018-02-22T07:53:58.005Z,5.76
2018-02-22T07:56:27.103Z,5.71
2018-02-22T07:58:56.066Z,5.69
2018-02-22T08:01:25.226Z,5.78
2018-02-22T08:03:54.353Z,5.93
2018-02-22T08:06:23.506Z,5.68
2018-02-22T08:08:52.834Z,5.72
2018-02-22T08:11:22.018Z,5.73
2018-02-22T08:13:51.651Z,5.70
2018-02-22T08:16:20.694Z,6.01
2018-02-22T08:18:50.106Z,5.84
2018-02-22T08:21:19.281Z,5.77
2018-02-22T08:23:48.611Z,5.84
2018-02-22T08:26:17.910Z,5.95
2018-02-22T08:28:47.146Z,5.81
2018-02-22T08:31:16.338Z,5.96
2018-02-22T08:33:45.342Z,6.04
2018-02-22T08:36:14.393Z,5.95
2018-02-22T08:38:43.812Z,6.17
2018-02-22T08:41:13.009Z,5.91
2018-02-22T08:43:42.436Z,5.90
2018-02-22T08:46:11.874Z,5.90
2018-02-22T08:48:41.450Z,5.97
2018-02-22T08:51:10.707Z,6.10
2018-02-22T08:53:40.006Z,5.97
2018-02-22T08:56:09.006Z,6.29
2018-02-22T08:58:38.305Z,6.28
2018-02-22T09:01:07.792Z,6.31
2018-02-22T09:03:37.009Z,6.12
2018-02-22T09:06:06.334Z,6.23
2018-02-22T09:08:35.401Z,6.51
2018-02-22T09:11:04.818Z,6.35
2018-02-22T09:13:34.122Z,6.26
2018-02-22T09:16:03.402Z,6.28
2018-02-22T09:18:33.126Z,6.29
2018-02-22T09:21:02.619Z,6.42
2018-02-22T09:23:31.904Z,6.11
2018-02-22T09:26:01.173Z,6.23
2018-02-22T09:28:30.279Z,6.32
2018-02-22T09:30:59.938Z,6.47
2018-02-22T09:33:29.165Z,6.33
2018-02-22T09:35:58.634Z,6.36
2018-02-22T09:38:28.354Z,6.45
2018-02-22T09:40:57.633Z,6.77
2018-02-22T09:43:26.938Z,6.66
2018-02-22T09:45:56.542Z,6.54
2018-02-22T09:48:26.195Z,6.39
2018-02-22T09:50:55.697Z,6.43
2018-02-22T09:53:24.938Z,6.37
2018-02-22T09:55:53.817Z,6.38
2018-02-22T09:58:23.387Z,6.56
2018-02-22T10:00:52.895Z,6.41
2018-02-22T10:03:22.490Z,6.43
2018-02-22T10:05:51.834Z,6.42
2018-02-22T10:08:21.070Z,6.35
2018-02-22T10:10:51.034Z,6.57
2018-02-22T10:13:20.183Z,6.43
2018-02-22T10:15:49.965Z,6.38
2018-02-22T10:18:19.184Z,6.43
2018-02-22T10:20:48.603Z,6.49
2018-02-22T10:23:18.262Z,6.47
2018-02-22T10:25:47.518Z,6.38
2018-02-22T10:28:17.371Z,6.43
2018-02-22T10:30:46.780Z,6.47
2018-02-22T10:33:15.869Z,6.46
2018-02-22T10:35:45.238Z,6.46
2018-02-22T10:38:14.565Z,6.33
2018-02-22T10:40:43.771Z,6.60
2018-02-22T10:43:13.101Z,6.54
2018-02-22T10:45:42.173Z,6.73
2018-02-22T10:48:11.616Z,6.60
2018-02-22T10:50:40.955Z,6.63
2018-02-22T10:53:10.112Z,6.76
2018-02-22T10:55:39.513Z,6.73
2018-02-22T10:58:08.397Z,6.65
2018-02-22T11:00:43.482Z,6.65
2018-02-22T11:03:12.871Z,6.95
2018-02-22T11:05:41.983Z,6.86
2018-02-22T11:08:11.147Z,6.79
2018-02-22T11:10:40.538Z,6.91
2018-02-22T11:13:09.848Z,7.24
2018-02-22T11:15:39.027Z,7.26
2018-02-22T11:18:08.266Z,7.33
2018-02-22T11:20:37.470Z,7.02
2018-02-22T11:23:07.379Z,6.99
2018-02-22T11:25:37.141Z,6.99
2018-02-22T11:28:06.268Z,7.02
2018-02-22T11:30:35.326Z,6.73
2018-02-22T11:33:04.542Z,6.85
2018-02-22T11:35:33.733Z,6.76
2018-02-22T11:38:02.900Z,6.70
2018-02-22T11:40:32.003Z,6.81
2018-02-22T11:43:01.194Z,6.65
2018-02-22T11:45:30.337Z,6.59
2018-02-22T11:47:59.781Z,6.73
2018-02-22T11:50:29.107Z,6.60
2018-02-22T11:52:58.486Z,6.50
2018-02-22T11:55:27.466Z,6.64
2018-02-22T11:57:56.378Z,6.69
2018-02-22T12:00:25.778Z,6.79
2018-02-22T12:02:54.771Z,6.42
2018-02-22T12:05:23.933Z,6.49
2018-02-22T12:07:53.083Z,6.37
2018-02-22T12:10:22.178Z,6.66
2018-02-22T12:12:51.254Z,6.53
2018-02-22T12:15:20.594Z,6.59
2018-02-22T12:17:50.307Z,6.50
2018-02-22T12:20:19.607Z,6.39
2018-02-22T12:22:49.344Z,6.51
2018-02-22T12:25:18.487Z,6.75
2018-02-22T12:27:48.038Z,6.57
2018-02-22T12:30:17.526Z,6.80
2018-02-22T12:32:46.726Z,6.83
2018-02-22T12:35:15.889Z,6.32
2018-02-22T12:37:44.954Z,6.09
2018-02-22T12:40:14.290Z,6.21
2018-02-22T12:42:43.317Z,6.35
2018-02-22T12:45:22.849Z,6.19
2018-02-22T12:47:57.287Z,6.32
2018-02-22T12:50:26.553Z,6.52
2018-02-22T12:52:55.878Z,6.28
2018-02-22T12:55:25.565Z,6.34
2018-02-22T12:57:54.855Z,6.15
2018-02-22T13:00:23.986Z,6.30
2018-02-22T13:02:53.818Z,6.20
2018-02-22T13:05:23.381Z,6.04
2018-02-22T13:07:52.829Z,5.88
2018-02-22T13:10:23.227Z,6.08
2018-02-22T13:12:52.638Z,5.80
2018-02-22T13:15:22.005Z,5.72
2018-02-22T13:17:51.364Z,5.77
2018-02-22T13:20:20.776Z,5.67
2018-02-22T13:22:50.422Z,5.68
2018-02-22T13:25:19.494Z,5.69
2018-02-22T13:27:48.725Z,5.90
2018-02-22T13:30:18.193Z,5.74
2018-02-22T13:32:58.682Z,5.82
2018-02-22T13:35:27.829Z,5.77
2018-02-22T13:38:17.103Z,5.81
2018-02-22T13:40:46.459Z,5.96
2018-02-22T13:43:15.795Z,5.92
2018-02-22T13:45:44.948Z,6.04
2018-02-22T13:48:14.361Z,6.09
2018-02-22T13:50:55.118Z,6.17
2018-02-22T13:53:24.262Z,6.01
2018-02-22T13:55:53.419Z,6.08
2018-02-22T13:58:22.290Z,5.96
2018-02-22T14:01:03.100Z,6.08
2018-02-22T14:03:32.576Z,6.16
2018-02-22T14:06:02.155Z,6.19
2018-02-22T14:08:43.366Z,6.30
2018-02-22T14:11:12.784Z,6.00
2018-02-22T14:13:41.674Z,6.35
2018-02-22T14:16:10.961Z,6.14
2018-02-22T14:18:40.189Z,6.00
2018-02-22T14:21:09.765Z,5.97
2018-02-22T14:23:39.305Z,6.00
2018-02-22T14:26:08.329Z,6.09
2018-02-22T14:28:37.497Z,6.12
2018-02-22T14:43:02.638Z,6.12
2018-02-22T14:45:35.015Z,6.16
2018-02-22T14:48:04.310Z,6.25
2018-02-22T14:50:34.471Z,6.11
2018-02-22T14:53:04.805Z,5.86
2018-02-22T14:55:34.243Z,6.07
2018-02-22T14:58:03.756Z,5.89
2018-02-22T15:00:32.961Z,5.83
2018-02-22T15:03:03.068Z,6.05
2018-02-22T15:05:32.321Z,5.94
2018-02-22T15:08:01.447Z,5.70
2018-02-22T15:10:30.790Z,5.76
2018-02-22T15:13:00.287Z,5.84
2018-02-22T15:15:29.167Z,5.79
2018-02-22T15:17:58.296Z,5.75
2018-02-22T15:20:27.170Z,5.83
2018-02-22T15:22:56.285Z,5.83
2018-02-22T15:25:25.592Z,5.74
2018-02-22T15:27:54.816Z,5.93
2018-02-22T15:30:24.030Z,5.77
2018-02-22T15:32:53.381Z,6.02
2018-02-22T15:35:22.797Z,5.76
2018-02-22T15:37:52.382Z,5.92
2018-02-22T15:40:21.542Z,5.83
2018-02-22T15:42:51.084Z,5.95
2018-02-22T15:45:25.326Z,5.91
2018-02-22T15:47:56.223Z,5.91
2018-02-22T15:50:25.745Z,6.00
2018-02-22T15:52:55.641Z,5.96
2018-02-22T15:55:25.194Z,6.01
2018-02-22T15:57:55.323Z,5.77
2018-02-22T16:00:24.906Z,5.95
2018-02-22T16:02:55.520Z,5.92
2018-02-22T16:05:25.317Z,6.13
2018-02-22T16:07:55.182Z,5.95
2018-02-22T16:10:24.782Z,6.03
2018-02-22T16:12:54.966Z,6.10
2018-02-22T16:15:24.804Z,5.99
2018-02-22T16:17:54.575Z,6.00
2018-02-22T16:20:41.516Z,6.25
2018-02-22T16:23:11.163Z,6.18
2018-02-22T16:25:40.938Z,6.16
2018-02-22T16:28:10.332Z,5.99
2018-02-22T16:30:39.668Z,6.13
2018-02-22T16:33:09.302Z,6.12
2018-02-22T16:35:38.586Z,6.21
2018-02-22T16:38:08.175Z,6.07
2018-02-22T16:40:37.562Z,6.00
2018-02-22T16:43:06.911Z,5.97
2018-02-22T16:45:36.036Z,6.13
2018-02-22T16:48:05.050Z,6.04
2018-02-22T16:50:34.593Z,6.27
2018-02-22T16:53:03.950Z,6.25
2018-02-22T16:55:33.072Z,6.33
2018-02-22T16:58:02.185Z,6.05
2018-02-22T17:00:31.471Z,6.38
2018-02-22T17:03:00.764Z,6.24
2018-02-22T17:05:30.064Z,6.07
2018-02-22T17:07:59.358Z,6.33
2018-02-22T17:10:28.449Z,6.22
2018-02-22T17:12:57.566Z,6.31
2018-02-22T17:15:26.520Z,6.28
2018-02-22T17:17:55.747Z,6.33
2018-02-22T17:20:24.778Z,6.29
2018-02-22T17:22:53.646Z,6.12
2018-02-22T17:25:22.123Z,6.27
2018-02-22T17:27:57.243Z,6.25
2018-02-22T17:30:31.973Z,6.28
2018-02-22T17:33:01.026Z,6.24
2018-02-22T17:38:43.295Z,6.23
2018-02-22T17:41:12.616Z,6.29
2018-02-22T17:43:41.714Z,6.22
2018-02-22T17:46:10.751Z,6.26
2018-02-22T17:48:39.850Z,6.25
2018-02-22T17:51:08.942Z,6.25
2018-02-22T17:53:38.238Z,6.10
2018-02-22T17:56:07.673Z,6.41
2018-02-22T17:58:36.953Z,6.45
2018-02-22T18:01:06.387Z,6.19
2018-02-22T18:03:35.394Z,6.47
2018-02-22T18:06:04.395Z,6.49
2018-02-22T18:08:33.340Z,6.31
2018-02-22T18:11:02.438Z,6.51
2018-02-22T18:13:33.999Z,6.06
2018-02-22T18:16:03.142Z,6.37
2018-02-22T18:18:32.377Z,6.15
2018-02-22T18:21:01.454Z,6.01
2018-02-22T18:23:30.698Z,6.32
2018-02-22T18:25:59.813Z,6.08
2018-02-22T18:28:29.167Z,6.20
2018-02-22T18:30:58.365Z,6.10
2018-02-22T18:33:27.302Z,6.10
2018-02-22T18:35:56.244Z,6.17
2018-02-22T18:38:25.347Z,6.07
2018-02-22T18:40:59.537Z,5.96
2018-02-22T18:43:34.548Z,5.89
2018-02-22T18:46:03.663Z,5.85
2018-02-22T18:48:33.100Z,6.02
2018-02-22T18:51:02.333Z,5.73
2018-02-22T18:53:31.506Z,5.80
2018-02-22T18:56:01.294Z,5.79
2018-02-22T18:58:30.294Z,5.72
2018-02-22T19:00:59.425Z,5.98
2018-02-22T19:03:28.895Z,6.05
2018-02-22T19:05:57.946Z,5.59
2018-02-22T19:08:26.998Z,5.71
2018-02-22T19:10:56.062Z,5.90
2018-02-22T19:13:25.038Z,5.64
2018-02-22T19:15:54.156Z,5.99
2018-02-22T19:18:23.246Z,6.10
2018-02-22T19:20:52.229Z,5.73
2018-02-22T19:23:21.139Z,5.79
2018-02-22T19:25:50.171Z,5.82
2018-02-22T19:28:19.381Z,5.98
2018-02-22T19:30:48.423Z,5.78
2018-02-22T19:33:17.502Z,5.77
2018-02-22T19:35:46.455Z,5.70
2018-02-22T19:38:15.541Z,5.77
2018-02-22T19:40:44.843Z,5.61
2018-02-22T19:43:14.044Z,5.58
2018-02-22T19:45:43.385Z,5.88
2018-02-22T19:48:12.442Z,5.72
2018-02-22T19:50:41.760Z,5.71
2018-02-22T19:53:10.771Z,5.41
2018-02-22T19:55:40.156Z,5.30
2018-02-22T19:58:09.017Z,5.33
2018-02-22T20:00:38.038Z,5.28
2018-02-22T20:03:07.290Z,5.31
2018-02-22T20:05:36.731Z,5.38
2018-02-22T20:08:05.981Z,5.30
2018-02-22T20:10:35.435Z,5.47
2018-02-22T20:13:04.594Z,5.29
2018-02-22T20:15:33.813Z,5.21
2018-02-22T20:18:02.990Z,5.33
2018-02-22T20:20:32.127Z,5.39
2018-02-22T20:23:01.471Z,5.24
2018-02-22T20:25:31.148Z,5.44
2018-02-22T20:28:00.340Z,5.23
2018-02-22T20:30:29.174Z,5.15
2018-02-22T20:32:58.630Z,5.40
2018-02-22T20:35:27.934Z,5.32
2018-02-22T20:37:57.093Z,5.26
2018-02-22T20:40:26.253Z,5.05
2018-02-22T20:42:55.521Z,5.01
2018-02-22T20:45:24.823Z,5.07
2018-02-22T20:47:54.236Z,5.04
2018-02-22T20:50:23.728Z,5.20
2018-02-22T20:55:54.990Z,5.01
2018-02-22T20:58:24.490Z,4.88
2018-02-22T21:00:53.673Z,4.83
2018-02-22T21:03:23.930Z,4.93
2018-02-22T21:05:52.929Z,4.69
2018-02-22T21:08:22.143Z,4.85
2018-02-22T21:10:51.224Z,4.84
2018-02-22T21:13:20.629Z,4.96
2018-02-22T21:15:50.018Z,4.91
2018-02-22T21:18:19.432Z,4.78
2018-02-22T21:20:48.570Z,4.75
2018-02-22T21:23:17.982Z,4.95
2018-02-22T21:25:47.440Z,4.75
2018-02-22T21:28:16.450Z,4.91
2018-02-22T21:30:45.718Z,4.83
2018-02-22T21:33:15.052Z,5.02
2018-02-22T21:35:44.129Z,4.92
2018-02-22T21:38:13.309Z,4.98
2018-02-22T21:40:42.520Z,4.80
2018-02-22T21:43:11.773Z,4.88
2018-02-22T21:45:40.593Z,4.78
2018-02-22T21:48:09.625Z,4.88
2018-02-22T21:50:38.989Z,4.84
2018-02-22T21:53:08.433Z,5.11
2018-02-22T21:55:37.465Z,5.04
2018-02-22T21:58:06.938Z,4.95
2018-02-22T22:00:36.302Z,4.97
2018-02-22T22:03:05.581Z,4.99
2018-02-22T22:05:34.903Z,5.02
2018-02-22T22:08:03.878Z,4.88
2018-02-22T22:10:32.957Z,4.91
2018-02-22T22:13:02.071Z,4.97
2018-02-22T22:15:31.386Z,4.94
2018-02-22T22:18:00.912Z,4.97
2018-02-22T22:20:29.834Z,4.96
2018-02-22T22:22:58.718Z,4.79
2018-02-22T22:25:27.850Z,4.84
2018-02-22T22:27:57.488Z,4.90
2018-02-22T22:30:26.990Z,4.86
2018-02-22T22:32:56.555Z,4.84
2018-02-22T22:35:26.547Z,5.00
2018-02-22T22:37:55.837Z,4.98
2018-02-22T22:40:25.313Z,5.28
2018-02-22T22:42:54.362Z,5.09
2018-02-22T22:45:23.849Z,4.91
2018-02-22T22:47:53.051Z,5.14
2018-02-22T22:50:22.073Z,5.03
2018-02-22T22:52:51.183Z,5.33
2018-02-22T22:55:20.590Z,5.47
2018-02-22T22:57:49.911Z,5.17
2018-02-22T23:00:23.585Z,5.10
2018-02-22T23:02:52.911Z,4.81
2018-02-22T23:05:22.047Z,4.98
2018-02-22T23:07:51.097Z,4.96
2018-02-22T23:10:20.194Z,4.97
2018-02-22T23:12:49.509Z,5.04
2018-02-22T23:15:18.733Z,4.98
2018-02-22T23:17:47.702Z,4.85
2018-02-22T23:20:16.579Z,4.76
2018-02-22T23:22:45.598Z,4.82
2018-02-22T23:25:14.877Z,4.77
2018-02-22T23:27:43.981Z,5.00
2018-02-22T23:30:13.047Z,4.90
2018-02-22T23:32:42.386Z,4.81
2018-02-22T23:35:11.769Z,4.83
2018-02-22T23:37:40.817Z,4.83
2018-02-22T23:40:13.432Z,4.82
2018-02-22T23:42:42.745Z,5.08
2018-02-22T23:45:11.942Z,4.87
2018-02-22T23:47:41.963Z,4.89
2018-02-22T23:50:10.986Z,4.90
2018-02-22T23:52:40.458Z,4.65
2018-02-22T23:55:09.597Z,4.73
2018-02-22T23:57:39.677Z,4.67
